createdAt,value
2018-03-11T00:00:50.486Z,46.67
2018-03-11T00:03:17.393Z,47.63
2018-03-11T00:05:44.698Z,42.00
2018-03-11T00:08:11.937Z,45.00
2018-03-11T00:10:39.182Z,41.07
2018-03-11T00:13:06.459Z,48.00
2018-03-11T00:15:33.829Z,53.50
2018-03-11T00:18:01.441Z,48.67
2018-03-11T00:20:29.277Z,44.90
2018-03-11T00:22:56.500Z,45.33
2018-03-11T00:25:23.738Z,43.40
2018-03-11T00:27:50.968Z,39.07
2018-03-11T00:30:18.195Z,46.70
2018-03-11T00:32:45.421Z,46.83
2018-03-11T00:35:17.154Z,45.57
2018-03-11T00:37:44.453Z,42.53
2018-03-11T00:40:17.209Z,46.30
2018-03-11T00:42:44.452Z,40.90
2018-03-11T00:45:17.070Z,42.13
2018-03-11T00:47:44.323Z,43.53
2018-03-11T00:50:16.330Z,42.53
2018-03-11T00:52:43.565Z,48.07
2018-03-11T00:55:16.613Z,50.83
2018-03-11T00:57:43.838Z,42.30
2018-03-11T01:00:15.619Z,42.93
2018-03-11T01:02:42.844Z,46.07
2018-03-11T01:05:15.289Z,43.40
2018-03-11T01:07:42.496Z,44.30
2018-03-11T01:10:17.169Z,48.10
2018-03-11T01:12:44.427Z,39.00
2018-03-11T01:15:16.380Z,44.03
2018-03-11T01:17:43.597Z,44.97
2018-03-11T01:20:16.327Z,40.43
2018-03-11T01:22:43.557Z,51.83
2018-03-11T01:25:17.141Z,52.60
2018-03-11T01:27:44.360Z,55.07
2018-03-11T01:30:17.425Z,47.87
2018-03-11T01:32:45.502Z,57.57
2018-03-11T01:35:17.952Z,51.40
2018-03-11T01:37:45.179Z,46.03
2018-03-11T01:40:21.734Z,44.70
2018-03-11T01:42:48.971Z,41.17
2018-03-11T01:45:17.128Z,42.47
2018-03-11T01:47:44.364Z,51.90
2018-03-11T01:50:17.541Z,43.27
2018-03-11T01:52:50.197Z,48.37
2018-03-11T01:55:17.425Z,47.67
2018-03-11T01:57:44.649Z,50.60
2018-03-11T02:00:16.657Z,53.33
2018-03-11T02:02:44.733Z,51.00
2018-03-11T02:05:15.858Z,51.17
2018-03-11T02:07:43.098Z,46.27
2018-03-11T02:10:16.686Z,51.70
2018-03-11T02:12:44.089Z,62.57
2018-03-11T02:15:17.374Z,58.93
2018-03-11T02:17:44.626Z,51.40
2018-03-11T02:20:15.833Z,52.50
2018-03-11T02:22:43.061Z,57.87
2018-03-11T02:25:16.761Z,53.07
2018-03-11T02:27:44.005Z,49.87
2018-03-11T02:30:15.726Z,57.30
2018-03-11T02:32:42.970Z,58.00
2018-03-11T02:35:14.431Z,46.80
2018-03-11T02:37:41.658Z,57.60
2018-03-11T02:40:15.391Z,53.10
2018-03-11T02:42:42.617Z,50.70
2018-03-11T02:45:14.309Z,54.23
2018-03-11T02:47:41.543Z,52.67
2018-03-11T02:50:15.209Z,58.23
2018-03-11T02:52:42.462Z,48.47
2018-03-11T02:55:15.758Z,58.80
2018-03-11T02:57:42.973Z,59.97
2018-03-11T03:00:14.965Z,47.73
2018-03-11T03:02:42.186Z,61.70
2018-03-11T03:05:09.454Z,60.60
2018-03-11T03:07:36.693Z,53.80
2018-03-11T03:10:11.128Z,59.30
2018-03-11T03:12:38.346Z,50.47
2018-03-11T03:17:44.448Z,52.13
2018-03-11T03:20:11.921Z,50.40
2018-03-11T03:22:39.139Z,54.83
2018-03-11T03:25:15.065Z,45.87
2018-03-11T03:27:42.309Z,59.53
2018-03-11T03:30:15.249Z,67.50
2018-03-11T03:32:42.486Z,56.07
2018-03-11T03:35:16.120Z,54.20
2018-03-11T03:37:43.356Z,49.40
2018-03-11T03:40:16.132Z,51.30
2018-03-11T03:42:43.374Z,51.30
2018-03-11T03:45:14.733Z,46.40
2018-03-11T03:47:41.946Z,49.80
2018-03-11T03:50:17.756Z,51.67
2018-03-11T03:52:45.065Z,47.80
2018-03-11T03:55:15.748Z,46.17
2018-03-11T03:57:42.997Z,48.03
2018-03-11T04:00:15.132Z,53.30
2018-03-11T04:02:42.358Z,62.77
2018-03-11T04:05:15.528Z,53.10
2018-03-11T04:07:42.770Z,50.87
2018-03-11T04:10:14.892Z,55.20
2018-03-11T04:12:42.114Z,50.90
2018-03-11T04:15:16.028Z,52.13
2018-03-11T04:17:45.068Z,46.87
2018-03-11T04:20:15.793Z,56.70
2018-03-11T04:22:43.024Z,54.87
2018-03-11T04:25:13.518Z,50.57
2018-03-11T04:27:40.762Z,52.43
2018-03-11T04:30:13.750Z,50.37
2018-03-11T04:32:41.076Z,49.80
2018-03-11T04:35:08.297Z,51.37
2018-03-11T04:37:35.533Z,52.23
2018-03-11T04:40:02.442Z,53.07
2018-03-11T04:42:29.669Z,50.97
2018-03-11T04:44:56.905Z,43.13
2018-03-11T04:47:24.150Z,54.57
2018-03-11T04:49:51.368Z,45.93
2018-03-11T04:52:18.633Z,52.07
2018-03-11T04:54:45.960Z,42.20
2018-03-11T04:57:13.167Z,47.03
2018-03-11T04:59:40.988Z,51.47
2018-03-11T05:02:08.200Z,51.60
2018-03-11T05:04:35.542Z,47.80
2018-03-11T05:07:02.773Z,50.63
2018-03-11T05:09:29.996Z,48.80
2018-03-11T05:11:57.213Z,58.13
2018-03-11T05:14:24.464Z,49.07
2018-03-11T05:16:51.771Z,48.70
2018-03-11T05:19:19.018Z,47.27
2018-03-11T05:21:46.246Z,52.00
2018-03-11T05:24:13.539Z,50.60
2018-03-11T05:26:40.909Z,47.10
2018-03-11T05:29:08.157Z,46.13
2018-03-11T05:31:35.378Z,56.43
2018-03-11T05:34:02.604Z,51.73
2018-03-11T05:36:29.880Z,49.80
2018-03-11T05:38:57.099Z,41.60
2018-03-11T05:41:24.330Z,42.87
2018-03-11T05:43:51.561Z,51.57
2018-03-11T05:46:18.785Z,52.83
2018-03-11T05:48:46.092Z,55.50
2018-03-11T05:51:13.337Z,46.63
2018-03-11T05:53:40.550Z,61.07
2018-03-11T05:56:07.769Z,58.93
2018-03-11T05:58:35.019Z,59.70
2018-03-11T06:01:02.249Z,52.20
2018-03-11T06:03:29.477Z,48.67
2018-03-11T06:05:56.713Z,57.37
2018-03-11T06:08:23.954Z,43.93
2018-03-11T06:10:51.181Z,43.77
2018-03-11T06:13:18.394Z,46.83
2018-03-11T06:15:45.645Z,54.73
2018-03-11T06:18:12.882Z,48.07
2018-03-11T06:20:40.117Z,45.10
2018-03-11T06:23:07.333Z,42.37
2018-03-11T06:25:34.595Z,44.80
2018-03-11T06:28:01.834Z,56.87
2018-03-11T06:30:29.054Z,46.00
2018-03-11T06:32:56.306Z,47.70
2018-03-11T06:35:23.564Z,47.23
2018-03-11T06:37:50.827Z,40.80
2018-03-11T06:40:18.056Z,40.87
2018-03-11T06:42:45.281Z,46.43
2018-03-11T06:45:12.537Z,39.73
2018-03-11T06:47:39.772Z,34.77
2018-03-11T06:50:14.897Z,33.67
2018-03-11T06:52:42.121Z,50.40
2018-03-11T06:55:12.081Z,40.03
2018-03-11T06:57:39.300Z,38.30
2018-03-11T07:00:11.835Z,37.30
2018-03-11T07:02:39.102Z,37.97
2018-03-11T07:05:10.572Z,34.87
2018-03-11T07:07:37.833Z,37.47
2018-03-11T07:12:38.522Z,40.60
2018-03-11T07:17:39.657Z,39.23
2018-03-11T07:20:15.582Z,33.33
2018-03-11T07:22:42.816Z,40.40
2018-03-11T07:25:15.419Z,35.37
2018-03-11T07:27:42.656Z,31.70
2018-03-11T07:30:09.735Z,33.73
2018-03-11T07:32:36.957Z,46.30
2018-03-11T07:35:12.740Z,39.17
2018-03-11T07:37:39.993Z,40.20
2018-03-11T07:40:11.081Z,40.47
2018-03-11T07:42:38.317Z,37.40
2018-03-11T07:45:11.066Z,35.60
2018-03-11T07:47:38.343Z,32.23
2018-03-11T07:50:13.289Z,31.47
2018-03-11T07:52:40.510Z,24.77
2018-03-11T07:55:09.558Z,27.60
2018-03-11T07:57:36.789Z,42.53
2018-03-11T08:00:03.707Z,31.30
2018-03-11T08:02:30.950Z,26.07
2018-03-11T08:04:58.175Z,26.80
2018-03-11T08:07:25.536Z,30.23
2018-03-11T08:09:52.892Z,29.23
2018-03-11T08:12:20.138Z,29.20
2018-03-11T08:14:47.464Z,31.37
2018-03-11T08:17:14.706Z,32.60
2018-03-11T08:19:41.979Z,26.40
2018-03-11T08:22:09.241Z,37.13
2018-03-11T08:24:36.478Z,31.17
2018-03-11T08:27:03.730Z,24.40
2018-03-11T08:29:30.950Z,26.20
2018-03-11T08:31:58.174Z,22.63
2018-03-11T08:34:25.387Z,23.20
2018-03-11T08:36:52.701Z,23.07
2018-03-11T08:39:19.992Z,26.10
2018-03-11T08:41:47.225Z,25.80
2018-03-11T08:44:14.508Z,19.90
2018-03-11T08:46:41.590Z,22.30
2018-03-11T08:49:08.854Z,19.23
2018-03-11T08:51:36.095Z,21.83
2018-03-11T08:54:03.321Z,22.03
2018-03-11T08:56:30.537Z,16.50
2018-03-11T08:58:57.786Z,19.53
2018-03-11T09:01:25.042Z,18.60
2018-03-11T09:03:52.260Z,16.70
2018-03-11T09:06:19.518Z,21.30
2018-03-11T09:08:46.733Z,21.70
2018-03-11T09:11:13.976Z,16.03
2018-03-11T09:13:41.197Z,20.90
2018-03-11T09:16:08.420Z,30.53
2018-03-11T09:18:35.461Z,19.93
2018-03-11T09:21:02.684Z,25.73
2018-03-11T09:23:29.916Z,18.13
2018-03-11T09:25:57.147Z,20.70
2018-03-11T09:28:24.412Z,21.80
2018-03-11T09:30:51.714Z,19.60
2018-03-11T09:33:18.946Z,16.73
2018-03-11T09:35:46.201Z,15.50
2018-03-11T09:38:13.437Z,15.20
2018-03-11T09:40:40.901Z,16.63
2018-03-11T09:43:08.129Z,19.07
2018-03-11T09:45:35.346Z,24.03
2018-03-11T09:48:02.575Z,18.70
2018-03-11T09:50:29.805Z,18.80
2018-03-11T09:52:57.029Z,20.20
2018-03-11T09:55:24.250Z,28.93
2018-03-11T09:57:51.471Z,22.00
2018-03-11T10:00:18.697Z,23.83
2018-03-11T10:02:45.924Z,22.50
2018-03-11T10:05:13.144Z,18.63
2018-03-11T10:07:40.356Z,21.20
2018-03-11T10:10:11.429Z,25.67
2018-03-11T10:12:38.682Z,25.33
2018-03-11T10:15:11.041Z,32.20
2018-03-11T10:17:38.272Z,31.40
2018-03-11T10:20:11.608Z,27.17
2018-03-11T10:22:38.832Z,23.90
2018-03-11T10:25:09.325Z,28.90
2018-03-11T10:27:36.544Z,18.90
2018-03-11T10:30:03.457Z,23.00
2018-03-11T10:32:30.881Z,24.67
2018-03-11T10:34:59.377Z,25.13
2018-03-11T10:37:26.620Z,26.60
2018-03-11T10:39:53.842Z,23.10
2018-03-11T10:42:21.065Z,23.43
2018-03-11T10:44:48.316Z,19.73
2018-03-11T10:47:15.542Z,30.87
2018-03-11T10:49:42.770Z,23.20
2018-03-11T10:52:10.025Z,28.57
2018-03-11T10:54:37.246Z,25.70
2018-03-11T10:57:04.455Z,31.50
2018-03-11T10:59:31.666Z,27.47
2018-03-11T11:02:01.507Z,23.50
2018-03-11T11:04:34.170Z,31.17
2018-03-11T11:07:01.430Z,24.53
2018-03-11T11:09:28.669Z,21.80
2018-03-11T11:11:55.888Z,30.90
2018-03-11T11:14:23.101Z,29.10
2018-03-11T11:16:50.376Z,23.83
2018-03-11T11:19:17.447Z,27.67
2018-03-11T11:21:44.865Z,21.13
2018-03-11T11:24:12.080Z,19.90
2018-03-11T11:26:39.326Z,19.50
2018-03-11T11:29:06.553Z,17.00
2018-03-11T11:31:33.782Z,26.93
2018-03-11T11:34:01.557Z,21.73
2018-03-11T11:36:28.597Z,33.03
2018-03-11T11:38:55.828Z,20.50
2018-03-11T11:41:23.061Z,22.30
2018-03-11T11:43:50.280Z,13.57
2018-03-11T11:46:17.504Z,13.77
2018-03-11T11:48:45.615Z,17.83
2018-03-11T11:51:12.994Z,13.80
2018-03-11T11:53:40.841Z,14.53
2018-03-11T11:56:09.369Z,12.37
2018-03-11T11:58:36.779Z,14.50
2018-03-11T12:01:04.007Z,15.17
2018-03-11T12:03:31.218Z,14.43
2018-03-11T12:05:59.390Z,7.50
2018-03-11T12:08:26.607Z,12.23
2018-03-11T12:10:53.825Z,12.43
2018-03-11T12:13:21.534Z,10.20
2018-03-11T12:15:48.760Z,10.13
2018-03-11T12:18:15.793Z,8.30
2018-03-11T12:20:43.932Z,7.70
2018-03-11T12:23:11.232Z,8.33
2018-03-11T12:25:38.452Z,6.60
2018-03-11T12:28:06.636Z,9.87
2018-03-11T12:30:33.852Z,9.90
2018-03-11T12:33:01.881Z,10.30
2018-03-11T12:35:29.098Z,8.63
2018-03-11T12:37:56.328Z,9.23
2018-03-11T12:40:23.561Z,10.27
2018-03-11T12:42:50.768Z,5.27
2018-03-11T12:45:17.980Z,7.50
2018-03-11T12:47:45.198Z,5.00
2018-03-11T12:50:15.424Z,4.40
2018-03-11T12:52:42.626Z,5.17
2018-03-11T12:55:15.797Z,4.90
2018-03-11T12:57:43.028Z,7.13
2018-03-11T13:00:14.173Z,5.60
2018-03-11T13:02:41.492Z,4.87
2018-03-11T13:05:13.684Z,4.53
2018-03-11T13:07:40.932Z,4.53
2018-03-11T13:10:09.931Z,4.80
2018-03-11T13:12:37.144Z,4.90
2018-03-11T13:15:09.933Z,4.80
2018-03-11T13:17:37.684Z,5.87
2018-03-11T13:20:15.467Z,4.20
2018-03-11T13:22:42.691Z,4.57
2018-03-11T13:25:15.216Z,3.57
2018-03-11T13:27:47.980Z,15.70
2018-03-11T13:30:15.192Z,8.67
2018-03-11T13:32:47.853Z,6.33
2018-03-11T13:35:15.352Z,3.90
2018-03-11T13:37:42.574Z,4.13
2018-03-11T13:40:15.232Z,3.23
2018-03-11T13:42:42.433Z,4.37
2018-03-11T13:45:15.193Z,3.97
2018-03-11T13:47:42.994Z,4.67
2018-03-11T13:50:12.462Z,2.93
2018-03-11T13:52:45.279Z,4.73
2018-03-11T13:55:15.328Z,3.13
2018-03-11T13:57:57.073Z,6.87
2018-03-11T14:00:24.923Z,2.10
2018-03-11T14:05:33.805Z,2.93
2018-03-11T14:08:01.029Z,3.23
2018-03-11T14:10:28.274Z,3.33
2018-03-11T14:12:55.490Z,4.87
2018-03-11T14:15:22.717Z,1.70
2018-03-11T14:17:49.937Z,1.73
2018-03-11T14:20:17.153Z,1.90
2018-03-11T14:22:44.375Z,5.73
2018-03-11T14:25:14.728Z,1.47
2018-03-11T14:27:41.944Z,1.60
2018-03-11T14:30:15.076Z,2.20
2018-03-11T14:32:43.077Z,2.43
2018-03-11T14:35:13.736Z,2.10
2018-03-11T14:37:40.944Z,2.20
2018-03-11T14:40:08.968Z,5.13
2018-03-11T14:42:36.177Z,5.00
2018-03-11T14:45:03.206Z,5.60
2018-03-11T14:47:30.475Z,5.60
2018-03-11T14:49:57.728Z,1.13
2018-03-11T14:52:24.933Z,2.13
2018-03-11T14:54:52.145Z,17.27
2018-03-11T14:57:19.379Z,2.43
2018-03-11T14:59:46.585Z,1.73
2018-03-11T15:02:13.792Z,2.47
2018-03-11T15:04:41.013Z,2.77
2018-03-11T15:07:08.221Z,2.10
2018-03-11T15:09:35.419Z,1.60
2018-03-11T15:12:02.620Z,1.20
2018-03-11T15:14:29.844Z,1.63
2018-03-11T15:16:57.077Z,1.20
2018-03-11T15:19:24.286Z,3.17
2018-03-11T15:21:51.492Z,1.53
2018-03-11T15:24:18.719Z,1.07
2018-03-11T15:26:45.954Z,3.13
2018-03-11T15:29:13.164Z,4.17
2018-03-11T15:31:41.097Z,4.63
2018-03-11T15:34:08.320Z,1.47
2018-03-11T15:36:35.522Z,1.70
2018-03-11T15:39:02.769Z,2.80
2018-03-11T15:41:30.157Z,2.00
2018-03-11T15:43:57.379Z,1.57
2018-03-11T15:46:25.240Z,5.00
2018-03-11T15:48:52.453Z,1.70
2018-03-11T15:51:19.660Z,1.20
2018-03-11T15:53:46.930Z,1.30
2018-03-11T15:56:14.133Z,1.27
2018-03-11T15:58:42.710Z,1.90
2018-03-11T16:01:09.916Z,1.17
2018-03-11T16:03:37.125Z,9.23
2018-03-11T16:06:04.346Z,1.47
2018-03-11T16:08:31.589Z,1.47
2018-03-11T16:10:58.799Z,1.63
2018-03-11T16:13:26.009Z,2.40
2018-03-11T16:15:53.225Z,3.07
2018-03-11T16:18:20.562Z,2.30
2018-03-11T16:20:47.786Z,3.03
2018-03-11T16:23:15.022Z,2.73
2018-03-11T16:25:42.252Z,1.20
2018-03-11T16:28:09.478Z,1.73
2018-03-11T16:30:36.575Z,2.77
2018-03-11T16:33:03.966Z,1.93
2018-03-11T16:35:31.196Z,1.37
2018-03-11T16:37:58.404Z,1.80
2018-03-11T16:40:25.648Z,2.20
2018-03-11T16:42:52.877Z,2.00
2018-03-11T16:45:20.077Z,1.90
2018-03-11T16:47:47.290Z,3.43
2018-03-11T16:50:14.519Z,2.93
2018-03-11T16:52:41.754Z,1.60
2018-03-11T16:55:14.854Z,1.67
2018-03-11T16:57:42.074Z,2.20
2018-03-11T17:00:15.457Z,1.77
2018-03-11T17:02:42.682Z,11.00
2018-03-11T17:05:14.368Z,2.10
2018-03-11T17:07:41.589Z,1.13
2018-03-11T17:10:14.232Z,1.23
2018-03-11T17:12:41.265Z,5.50
2018-03-11T17:15:13.529Z,0.80
2018-03-11T17:17:40.748Z,1.47
2018-03-11T17:20:13.934Z,1.07
2018-03-11T17:22:41.817Z,1.83
2018-03-11T17:25:15.317Z,2.40
2018-03-11T17:27:42.512Z,1.20
2018-03-11T17:30:15.247Z,1.00
2018-03-11T17:32:42.477Z,1.60
2018-03-11T17:35:14.822Z,1.03
2018-03-11T17:37:42.049Z,4.90
2018-03-11T17:40:12.733Z,0.80
2018-03-11T17:42:39.948Z,1.30
2018-03-11T17:45:09.041Z,1.13
2018-03-11T17:47:36.252Z,1.20
2018-03-11T17:50:03.174Z,5.10
2018-03-11T17:52:30.383Z,1.00
2018-03-11T17:54:57.617Z,1.27
2018-03-11T17:57:24.841Z,1.50
2018-03-11T17:59:52.048Z,1.17
2018-03-11T18:02:19.269Z,5.53
2018-03-11T18:04:46.165Z,2.03
2018-03-11T18:07:13.365Z,2.00
2018-03-11T18:09:40.565Z,5.17
2018-03-11T18:12:07.789Z,2.07
2018-03-11T18:14:35.009Z,1.67
2018-03-11T18:17:02.868Z,2.03
2018-03-11T18:19:30.098Z,1.70
2018-03-11T18:21:57.356Z,1.83
2018-03-11T18:24:24.599Z,1.97
2018-03-11T18:26:51.868Z,3.67
2018-03-11T18:29:19.077Z,2.40
2018-03-11T18:31:46.292Z,2.40
2018-03-11T18:34:13.502Z,2.00
2018-03-11T18:36:40.709Z,1.83
2018-03-11T18:39:07.904Z,1.97
2018-03-11T18:41:35.115Z,2.70
2018-03-11T18:44:02.349Z,3.57
2018-03-11T18:46:29.559Z,2.80
2018-03-11T18:48:58.745Z,2.30
2018-03-11T18:51:25.993Z,1.53
2018-03-11T18:53:53.204Z,1.57
2018-03-11T18:56:20.416Z,1.30
2018-03-11T18:58:47.626Z,1.87
2018-03-11T19:01:14.830Z,3.33
2018-03-11T19:03:42.073Z,2.80
2018-03-11T19:06:09.435Z,1.37
2018-03-11T19:08:36.648Z,1.60
2018-03-11T19:11:03.872Z,2.63
2018-03-11T19:13:31.109Z,2.33
2018-03-11T19:15:58.321Z,3.37
2018-03-11T19:18:25.533Z,7.10
2018-03-11T19:20:53.180Z,3.10
2018-03-11T19:23:20.401Z,1.37
2018-03-11T19:25:47.605Z,1.53
2018-03-11T19:28:15.623Z,1.10
2018-03-11T19:30:42.861Z,1.33
2018-03-11T19:33:10.092Z,1.43
2018-03-11T19:35:37.294Z,1.20
2018-03-11T19:38:04.509Z,1.10
2018-03-11T19:40:31.731Z,1.20
2018-03-11T19:42:58.933Z,1.40
2018-03-11T19:45:26.164Z,1.83
2018-03-11T19:47:53.376Z,1.90
2018-03-11T19:50:20.601Z,3.57
2018-03-11T19:52:47.826Z,6.50
2018-03-11T19:55:15.036Z,1.47
2018-03-11T19:57:42.243Z,1.10
2018-03-11T20:00:15.376Z,1.10
2018-03-11T20:02:42.577Z,1.37
2018-03-11T20:05:17.039Z,1.40
2018-03-11T20:07:44.264Z,2.13
2018-03-11T20:10:14.704Z,1.50
2018-03-11T20:12:41.917Z,4.87
2018-03-11T20:15:15.139Z,6.10
2018-03-11T20:17:42.367Z,2.10
2018-03-11T20:20:14.337Z,1.67
2018-03-11T20:22:41.566Z,1.67
2018-03-11T20:25:14.753Z,2.00
2018-03-11T20:27:41.995Z,1.00
2018-03-11T20:30:15.756Z,6.23
2018-03-11T20:32:42.964Z,3.37
2018-03-11T20:35:14.142Z,2.63
2018-03-11T20:37:41.356Z,2.17
2018-03-11T20:40:14.894Z,1.90
2018-03-11T20:42:42.114Z,2.73
2018-03-11T20:45:15.428Z,3.77
2018-03-11T20:47:42.476Z,2.47
2018-03-11T20:50:11.096Z,2.63
2018-03-11T20:52:38.313Z,3.10
2018-03-11T20:55:13.125Z,2.37
2018-03-11T20:57:40.353Z,2.57
2018-03-11T21:00:14.489Z,5.70
2018-03-11T21:02:41.722Z,4.40
2018-03-11T21:05:13.041Z,2.87
2018-03-11T21:07:40.284Z,5.83
2018-03-11T21:10:14.185Z,3.73
2018-03-11T21:12:41.424Z,3.77
2018-03-11T21:15:15.105Z,3.13
2018-03-11T21:17:43.176Z,3.40
2018-03-11T21:20:14.150Z,3.30
2018-03-11T21:22:41.364Z,4.00
2018-03-11T21:25:14.345Z,3.43
2018-03-11T21:27:41.558Z,3.33
2018-03-11T21:30:13.246Z,6.73
2018-03-11T21:32:40.718Z,2.73
2018-03-11T21:35:15.718Z,3.53
2018-03-11T21:37:42.967Z,4.43
2018-03-11T21:40:10.468Z,8.50
2018-03-11T21:42:37.716Z,4.20
2018-03-11T21:47:37.936Z,3.50
2018-03-11T21:50:12.490Z,6.10
2018-03-11T21:52:39.712Z,9.03
2018-03-11T21:55:13.506Z,5.80
2018-03-11T21:57:40.740Z,4.83
2018-03-11T22:00:14.609Z,6.63
2018-03-11T22:02:41.845Z,6.10
2018-03-11T22:05:15.937Z,7.50
2018-03-11T22:07:43.346Z,5.50
2018-03-11T22:10:15.639Z,4.30
2018-03-11T22:12:42.873Z,4.80
2018-03-11T22:15:14.687Z,3.37
2018-03-11T22:17:41.901Z,7.77
2018-03-11T22:20:15.090Z,20.43
2018-03-11T22:22:42.313Z,8.57
2018-03-11T22:25:11.567Z,10.03
2018-03-11T22:27:38.787Z,7.77
2018-03-11T22:30:14.277Z,16.03
2018-03-11T22:32:41.508Z,8.67
2018-03-11T22:35:14.669Z,11.57
2018-03-11T22:37:41.890Z,11.37
2018-03-11T22:40:15.528Z,3.70
2018-03-11T22:42:42.805Z,6.83
2018-03-11T22:45:14.340Z,7.73
2018-03-11T22:47:41.556Z,8.63
2018-03-11T22:50:14.941Z,8.40
2018-03-11T22:52:42.174Z,7.77
2018-03-11T22:55:15.301Z,5.00
2018-03-11T22:57:42.516Z,5.30
2018-03-11T23:00:11.080Z,5.73
2018-03-11T23:02:38.315Z,3.80
2018-03-11T23:05:14.316Z,13.37
2018-03-11T23:07:41.528Z,5.73
2018-03-11T23:10:13.218Z,9.57
2018-03-11T23:12:40.977Z,6.90
2018-03-11T23:15:13.761Z,5.60
2018-03-11T23:17:41.014Z,11.27
2018-03-11T23:20:15.354Z,13.40
2018-03-11T23:22:42.612Z,12.67
2018-03-11T23:25:15.748Z,4.93
2018-03-11T23:27:42.958Z,8.30
2018-03-11T23:30:14.573Z,9.33
2018-03-11T23:32:41.820Z,12.27
2018-03-11T23:35:15.164Z,7.13
2018-03-11T23:37:42.401Z,12.60
2018-03-11T23:40:09.609Z,6.33
2018-03-11T23:42:36.636Z,6.93
2018-03-11T23:45:03.864Z,9.30
2018-03-11T23:47:31.956Z,5.77
2018-03-11T23:49:59.168Z,5.03
2018-03-11T23:52:26.387Z,9.50
2018-03-11T23:54:54.635Z,16.10
2018-03-11T23:57:21.856Z,9.13
2018-03-11T23:59:49.064Z,8.30
